Time;durP1;ratioP1;P1;durP2;ratioP2;P2;SDS_P1;SDS_P2;PMS_P1;PMS_P2;Temp;Humidity;BMP_temperature;BMP_pressure;BME280_temperature;BME280_humidity;BME280_pressure;Samples;Min_cycle;Max_cycle;Signal;HPM_P1;HPM_P2
2022/01/14 00:02:09;;;;;;;224.77;28.25;;;;;;;1.37;100.00;103495.88;5009616;28;20030;-80
2022/01/14 00:04:36;;;;;;;216.15;27.15;;;;;;;1.43;100.00;103494.09;4998678;28;20121;-80
2022/01/14 00:07:03;;;;;;;242.50;25.40;;;;;;;1.29;100.00;103485.06;4999950;28;20049;-80
2022/01/14 00:09:30;;;;;;;174.52;25.23;;;;;;;1.31;100.00;103487.75;4981124;28;20478;-80
2022/01/14 00:11:58;;;;;;;188.48;26.08;;;;;;;1.31;100.00;103491.34;4995286;28;20053;-80
2022/01/14 00:14:42;;;;;;;190.60;26.80;;;;;;;1.32;100.00;103498.56;5010897;28;20029;-80
2022/01/14 00:17:12;;;;;;;;;;;;;;;1.32;100.00;103500.38;4982757;28;20401;-80
2022/01/14 00:19:39;;;;;;;219.15;24.52;;;;;;;1.27;100.00;103487.75;4980696;28;19956;-80
2022/01/14 00:22:12;;;;;;;199.10;23.55;;;;;;;1.30;100.00;103497.66;4996596;28;20057;-81
2022/01/14 00:33:16;;;;;;;164.52;24.05;;;;;;;1.39;100.00;103488.69;4996488;28;20074;-80
2022/01/14 00:35:42;;;;;;;215.85;27.48;;;;;;;1.37;100.00;103490.47;5002020;28;20070;-80
2022/01/14 00:38:09;;;;;;;130.68;21.88;;;;;;;1.35;100.00;103490.47;4979774;28;20022;-80
2022/01/14 00:40:35;;;;;;;190.15;23.55;;;;;;;1.38;100.00;103473.41;4976538;28;20027;-79
2022/01/14 00:43:01;;;;;;;166.20;24.98;;;;;;;1.32;100.00;103458.09;5010312;28;20022;-80
2022/01/14 00:45:26;;;;;;;144.60;24.45;;;;;;;1.35;100.00;103462.59;4997460;28;20033;-80
2022/01/14 00:47:52;;;;;;;159.57;23.35;;;;;;;1.29;100.00;103463.47;4996031;28;20053;-80
2022/01/14 00:50:19;;;;;;;140.68;25.40;;;;;;;1.21;100.00;103449.94;4995353;28;20030;-80
2022/01/14 00:52:46;;;;;;;197.55;27.23;;;;;;;1.37;100.00;103461.69;4993871;28;20030;-80
2022/01/14 00:55:15;;;;;;;178.52;26.83;;;;;;;1.39;100.00;103454.47;4982009;28;20025;-80
2022/01/14 01:00:32;;;;;;;173.80;22.90;;;;;;;1.33;100.00;103453.56;4993601;28;20090;-80
2022/01/14 01:02:59;;;;;;;179.38;24.65;;;;;;;1.39;100.00;103459.00;4989785;28;20701;-80
2022/01/14 01:05:25;;;;;;;162.82;24.98;;;;;;;1.36;100.00;103459.91;4993500;28;20047;-80
2022/01/14 01:08:05;;;;;;;152.73;24.45;;;;;;;1.35;100.00;103447.28;5012972;28;20137;-80
2022/01/14 01:10:31;;;;;;;154.88;25.27;;;;;;;1.39;100.00;103449.09;4989523;28;20042;-80
2022/01/14 01:13:17;;;;;;;173.13;28.00;;;;;;;1.32;100.00;103432.91;4995416;28;20043;-80
2022/01/14 01:15:42;;;;;;;237.85;29.13;;;;;;;1.32;100.00;103433.78;4980515;28;20031;-80
2022/01/14 01:18:08;;;;;;;184.63;29.73;;;;;;;1.35;100.00;103439.19;4981050;28;20073;-81
2022/01/14 01:20:33;;;;;;;284.48;28.80;;;;;;;1.30;100.00;103432.91;4989093;28;20117;-80
2022/01/14 01:22:59;;;;;;;270.90;30.23;;;;;;;1.27;100.00;103447.28;4999399;28;20030;-80
2022/01/14 01:25:28;;;;;;;278.55;29.40;;;;;;;1.29;100.00;103442.78;4993112;28;20085;-80
2022/01/14 01:27:54;;;;;;;262.30;30.88;;;;;;;1.28;100.00;103441.00;5001111;28;20048;-81
2022/01/14 01:32:55;;;;;;;210.93;26.90;;;;;;;1.24;100.00;103424.78;5014566;28;20065;-80
2022/01/14 01:35:21;;;;;;;247.13;29.17;;;;;;;1.23;100.00;103420.28;5000853;28;20450;-80
2022/01/14 01:37:46;;;;;;;247.68;29.00;;;;;;;1.20;100.00;103426.59;5000912;28;20498;-80
2022/01/14 01:40:14;;;;;;;293.90;30.98;;;;;;;1.19;100.00;103431.97;4995019;28;20030;-81
2022/01/14 01:42:41;;;;;;;290.70;33.95;;;;;;;1.23;100.00;103431.06;5000328;28;20073;-80
2022/01/14 01:45:10;;;;;;;314.10;30.55;;;;;;;1.18;100.00;103428.38;4985618;28;20049;-80
2022/01/14 01:47:37;;;;;;;298.98;30.23;;;;;;;1.18;100.00;103425.69;4999630;28;20445;-80
2022/01/14 01:50:12;;;;;;;238.77;30.23;;;;;;;1.20;100.00;103431.09;4987290;28;20027;-80
2022/01/14 01:52:38;;;;;;;258.50;30.90;;;;;;;1.21;100.00;103427.47;4997776;28;20069;-80
2022/01/14 01:55:04;;;;;;;300.25;29.52;;;;;;;1.08;100.00;103426.53;5001620;28;20429;-80
2022/01/14 01:57:30;;;;;;;282.17;29.85;;;;;;;1.13;100.00;103423.88;5001383;28;20031;-80
2022/01/14 01:59:55;;;;;;;228.88;28.85;;;;;;;1.06;100.00;103412.16;4998440;28;20042;-80
2022/01/14 02:02:21;;;;;;;313.38;31.25;;;;;;;1.08;100.00;103423.84;4999952;28;20042;-80
2022/01/14 02:04:46;;;;;;;227.35;32.47;;;;;;;1.17;100.00;103421.19;5016960;28;20078;-80
2022/01/14 02:07:12;;;;;;;196.63;29.65;;;;;;;1.17;100.00;103421.19;4998132;28;20042;-80
2022/01/14 02:09:38;;;;;;;219.73;28.17;;;;;;;1.13;100.00;103413.06;4998028;28;20030;-80
2022/01/14 02:12:09;;;;;;;251.73;30.00;;;;;;;1.23;100.00;103422.97;5001488;28;20038;-80
2022/01/14 02:18:02;;;;;;;212.02;30.05;;;;;;;1.20;100.00;103414.91;5016454;28;20046;-80
2022/01/14 02:22:10;;;;;;;178.55;28.45;;;;;;;1.24;100.00;103427.47;5001455;28;20050;-80
2022/01/14 02:22:51;;;;;;;240.43;31.70;;;;;;;1.26;100.00;103421.22;5001185;28;20038;-80
2022/01/14 02:25:28;;;;;;;329.60;31.92;;;;;;;1.23;100.00;103415.81;5002539;28;20470;-81
2022/01/14 02:27:56;;;;;;;207.93;30.60;;;;;;;1.19;100.00;103399.59;4993798;28;20049;-80
2022/01/14 02:30:23;;;;;;;255.57;28.17;;;;;;;1.24;100.00;103398.69;4998870;28;20027;-80
2022/01/14 02:32:48;;;;;;;202.88;31.92;;;;;;;1.26;100.00;103410.41;4984334;28;20057;-79
2022/01/14 02:35:14;;;;;;;279.00;33.88;;;;;;;1.27;100.00;103404.09;4994394;28;20026;-79
2022/01/14 02:37:40;;;;;;;326.17;36.10;;;;;;;1.24;100.00;103417.56;4999302;28;20085;-79
2022/01/14 02:40:06;;;;;;;303.25;33.05;;;;;;;1.16;100.00;103405.88;4998516;28;20070;-80
2022/01/14 02:42:32;;;;;;;279.20;31.33;;;;;;;1.23;100.00;103409.47;4995027;28;20049;-80
2022/01/14 02:45:02;;;;;;;272.90;32.95;;;;;;;1.16;100.00;103408.56;4998910;28;20429;-81
2022/01/14 02:47:28;;;;;;;201.98;30.23;;;;;;;1.12;100.00;103393.28;4999802;28;20377;-81
2022/01/14 02:49:54;;;;;;;177.80;28.48;;;;;;;1.23;100.00;103406.78;4980158;28;20030;-80
2022/01/14 02:52:40;;;;;;;296.63;32.88;;;;;;;1.16;100.00;103397.78;5001275;28;20043;-80
2022/01/14 02:55:13;;;;;;;183.05;31.02;;;;;;;1.27;100.00;103400.50;4987035;28;20386;-80
2022/01/14 02:57:44;;;;;;;308.77;32.85;;;;;;;1.10;100.00;103389.69;4995803;28;20063;-80
2022/01/14 03:00:11;;;;;;;263.75;31.27;;;;;;;1.13;100.00;103400.47;4989480;28;20088;-80
2022/01/14 03:02:42;;;;;;;231.10;30.52;;;;;;;1.05;100.00;103397.78;4995818;28;20030;-80
2022/01/14 03:05:07;;;;;;;266.40;32.63;;;;;;;1.16;100.00;103394.19;5012753;28;20355;-80
2022/01/14 03:07:33;;;;;;;350.25;33.80;;;;;;;1.07;100.00;103397.78;4997431;28;20042;-79
2022/01/14 03:09:59;;;;;;;267.40;31.85;;;;;;;1.06;100.00;103385.19;4994886;28;20475;-79
2022/01/14 03:12:24;;;;;;;222.30;30.55;;;;;;;1.10;100.00;103381.59;4977032;28;20037;-79
2022/01/14 03:14:50;;;;;;;276.90;29.20;;;;;;;1.01;100.00;103390.56;4996025;28;20062;-79
2022/01/14 03:17:16;;;;;;;265.98;28.88;;;;;;;1.04;100.00;103381.59;4999892;28;20036;-79
2022/01/14 03:19:42;;;;;;;242.40;27.70;;;;;;;1.02;100.00;103378.00;4996986;28;20429;-78
2022/01/14 03:22:25;;;;;;;265.98;30.10;;;;;;;0.96;100.00;103369.88;5015412;28;20030;-79
2022/01/14 03:27:16;;;;;;;244.02;27.60;;;;;;;0.90;100.00;103368.97;5012503;28;20097;-79
2022/01/14 03:29:42;;;;;;;186.57;26.35;;;;;;;1.01;100.00;103371.69;5003145;28;20042;-79
2022/01/14 03:32:08;;;;;;;160.90;23.75;;;;;;;0.99;100.00;103383.38;4996482;28;20100;-80
2022/01/14 03:34:34;;;;;;;174.50;25.08;;;;;;;0.94;100.00;103377.97;4997466;28;20138;-79
2022/01/14 03:37:00;;;;;;;212.52;25.17;;;;;;;0.79;100.00;103378.84;5000162;28;20034;-80
2022/01/14 03:39:25;;;;;;;240.38;26.40;;;;;;;0.85;100.00;103383.34;5012280;28;20041;-79
2022/01/14 03:41:51;;;;;;;164.15;24.30;;;;;;;0.85;100.00;103368.06;4980712;28;20102;-80
2022/01/14 03:44:17;;;;;;;230.38;23.92;;;;;;;0.87;100.00;103362.66;5011236;28;20037;-80
2022/01/14 03:46:44;;;;;;;168.40;25.17;;;;;;;0.83;100.00;103358.16;4992352;28;20053;-80
2022/01/14 03:49:10;;;;;;;172.15;27.00;;;;;;;0.97;100.00;103374.38;5010168;28;20034;-79
2022/01/14 03:51:36;;;;;;;237.30;28.83;;;;;;;0.94;100.00;103371.69;5005775;28;20058;-80
2022/01/14 03:54:01;;;;;;;187.35;26.15;;;;;;;0.96;100.00;103377.97;5009351;28;20034;-80
2022/01/14 03:56:27;;;;;;;186.55;24.90;;;;;;;0.87;100.00;103370.75;5013391;28;20027;-79
2022/01/14 03:58:53;;;;;;;232.15;24.83;;;;;;;0.89;100.00;103364.47;5006273;28;20065;-78
2022/01/14 04:01:20;;;;;;;164.93;25.58;;;;;;;0.89;100.00;103364.47;5000285;28;20041;-79
2022/01/14 04:03:47;;;;;;;201.90;30.23;;;;;;;0.96;100.00;103372.59;5008636;28;20781;-79
2022/01/14 04:06:13;;;;;;;174.40;24.80;;;;;;;0.92;100.00;103369.00;5003475;28;20036;-79
2022/01/14 04:08:39;;;;;;;192.32;25.75;;;;;;;0.99;100.00;103367.19;5004538;28;20133;-78
2022/01/14 04:11:07;;;;;;;263.80;27.50;;;;;;;0.97;100.00;103364.50;4997944;28;20046;-79
2022/01/14 04:13:55;;;;;;;183.52;24.73;;;;;;;0.89;100.00;103361.78;4999223;28;20093;-79
2022/01/14 04:16:23;;;;;;;263.95;26.65;;;;;;;0.83;100.00;103356.38;4974573;28;20026;-79
2022/01/14 04:18:50;;;;;;;214.02;27.17;;;;;;;0.84;100.00;103362.69;4999415;28;20026;-79
2022/01/14 04:21:16;;;;;;;184.73;23.10;;;;;;;0.83;100.00;103361.75;4998823;28;20401;-78
2022/01/14 04:23:41;;;;;;;245.50;26.23;;;;;;;0.79;100.00;103353.66;4998968;28;20038;-79
2022/01/14 04:26:07;;;;;;;219.93;26.48;;;;;;;0.72;100.00;103331.16;4997082;28;20030;-79
2022/01/14 04:28:36;;;;;;;209.63;25.10;;;;;;;0.77;100.00;103350.06;4997842;28;20046;-79
2022/01/14 04:31:05;;;;;;;208.43;26.00;;;;;;;0.77;100.00;103350.97;4998319;28;20034;-79
2022/01/14 04:33:32;;;;;;;285.85;24.73;;;;;;;0.79;100.00;103349.19;4998955;28;20046;-79
2022/01/14 04:36:02;;;;;;;190.98;26.42;;;;;;;0.83;100.00;103355.47;4989684;28;20040;-79
2022/01/14 04:38:29;;;;;;;228.75;25.13;;;;;;;0.83;100.00;103355.47;5002523;28;20030;-79
2022/01/14 04:40:55;;;;;;;297.90;27.65;;;;;;;0.78;100.00;103341.97;4997805;28;20031;-79
2022/01/14 04:43:21;;;;;;;182.20;25.80;;;;;;;0.78;100.00;103354.56;5016715;28;20147;-79
2022/01/14 04:48:26;;;;;;;236.23;24.52;;;;;;;0.73;100.00;103352.75;5016271;28;20486;-79
2022/01/14 04:50:53;;;;;;;185.13;23.48;;;;;;;0.71;100.00;103351.84;4999974;28;20441;-79
2022/01/14 04:53:19;;;;;;;177.13;25.70;;;;;;;0.60;100.00;103348.22;4999181;28;20499;-79
2022/01/14 04:55:44;;;;;;;210.18;21.20;;;;;;;0.60;100.00;103347.31;4999534;28;20041;-79
2022/01/14 04:58:10;;;;;;;160.98;21.27;;;;;;;0.48;100.00;103330.22;4996764;28;20030;-79
2022/01/14 05:00:37;;;;;;;212.60;25.45;;;;;;;0.58;100.00;103328.44;4991683;28;20093;-80
2022/01/14 05:03:03;;;;;;;196.43;23.88;;;;;;;0.55;100.00;103332.03;5019259;28;20060;-80
2022/01/14 05:05:33;;;;;;;165.18;21.77;;;;;;;0.42;100.00;103307.75;5003700;28;20532;-80
2022/01/14 05:07:59;;;;;;;174.13;23.73;;;;;;;0.57;100.00;103325.75;4984453;28;20042;-80
2022/01/14 05:12:50;;;;;;;196.80;23.50;;;;;;;0.52;100.00;103320.34;5003168;28;20034;-80
2022/01/14 05:15:17;;;;;;;172.20;23.63;;;;;;;0.55;100.00;103325.75;5004958;28;20030;-80
2022/01/14 05:17:42;;;;;;;183.07;24.25;;;;;;;0.53;100.00;103317.66;5006925;28;20062;-80
2022/01/14 05:20:09;;;;;;;147.77;22.50;;;;;;;0.54;100.00;103306.00;4985082;28;20041;-80
2022/01/14 05:22:35;;;;;;;223.60;24.88;;;;;;;0.60;100.00;103318.56;5001962;28;20061;-82
2022/01/14 05:25:00;;;;;;;197.57;26.02;;;;;;;0.50;100.00;103303.28;4999539;28;20048;-79
2022/01/14 05:27:26;;;;;;;194.07;26.00;;;;;;;0.50;100.00;103311.38;5000405;28;20065;-79
2022/01/14 05:29:51;;;;;;;166.57;24.55;;;;;;;0.48;100.00;103321.25;5003598;28;20031;-78
2022/01/14 05:32:20;;;;;;;163.00;22.85;;;;;;;0.49;100.00;103325.72;5003686;28;20030;-78
2022/01/14 05:34:46;;;;;;;181.23;24.70;;;;;;;0.52;100.00;103320.34;5004964;28;20555;-79
2022/01/14 05:37:12;;;;;;;125.93;22.55;;;;;;;0.59;100.00;103313.16;4991037;28;20030;-78
2022/01/14 05:39:38;;;;;;;162.88;23.00;;;;;;;0.54;100.00;103315.84;5023327;28;20089;-79
2022/01/14 05:42:04;;;;;;;156.45;24.33;;;;;;;0.46;100.00;103309.53;5006859;28;20036;-79
2022/01/14 05:44:31;;;;;;;148.13;22.50;;;;;;;0.39;100.00;103315.81;5007368;28;20505;-79
2022/01/14 05:46:59;;;;;;;189.38;23.48;;;;;;;0.44;100.00;103324.81;5019441;28;20084;-79
2022/01/14 05:49:25;;;;;;;204.43;23.67;;;;;;;0.43;100.00;103315.84;4989583;28;20049;-79
2022/01/14 05:51:50;;;;;;;145.65;24.15;;;;;;;0.42;100.00;103314.03;5008189;28;20030;-78
2022/01/14 05:54:17;;;;;;;190.30;23.95;;;;;;;0.39;100.00;103316.72;5019310;28;20717;-78
2022/01/14 05:56:43;;;;;;;153.13;22.52;;;;;;;0.36;100.00;103314.00;4987525;28;20058;-79
2022/01/14 05:59:08;;;;;;;169.82;26.58;;;;;;;0.36;100.00;103312.22;4984232;28;20058;-79
2022/01/14 06:01:34;;;;;;;229.32;24.55;;;;;;;0.40;100.00;103325.72;5008100;28;20027;-78
2022/01/14 06:04:01;;;;;;;222.75;24.83;;;;;;;0.36;100.00;103331.09;4985510;28;20049;-78
2022/01/14 06:06:27;;;;;;;228.75;23.98;;;;;;;0.30;100.00;103322.09;5007531;28;20032;-78
2022/01/14 06:08:53;;;;;;;173.50;23.13;;;;;;;0.30;100.00;103320.28;5004166;28;20117;-78
2022/01/14 06:11:20;;;;;;;162.35;22.15;;;;;;;0.24;100.00;103317.56;4983839;28;20443;-78
2022/01/14 06:13:46;;;;;;;199.63;25.27;;;;;;;0.25;100.00;103316.69;4976846;28;20023;-79
2022/01/14 06:16:12;;;;;;;219.63;24.35;;;;;;;0.24;100.00;103309.47;4966688;28;20716;-78
2022/01/14 06:18:38;;;;;;;185.10;25.08;;;;;;;0.34;100.00;103316.72;4990711;28;20043;-78
2022/01/14 06:21:04;;;;;;;136.73;24.13;;;;;;;0.40;100.00;103315.81;4982048;28;20034;-78
2022/01/14 06:23:30;;;;;;;203.10;25.45;;;;;;;0.35;100.00;103306.81;4998230;28;20058;-77
2022/01/14 06:25:56;;;;;;;162.75;22.88;;;;;;;0.39;100.00;103315.81;4993607;28;20034;-78
2022/01/14 06:28:22;;;;;;;220.48;24.65;;;;;;;0.39;100.00;103327.47;4972157;28;20038;-78
2022/01/14 06:30:47;;;;;;;199.10;24.27;;;;;;;0.38;100.00;103327.47;4997233;28;20466;-78
2022/01/14 06:33:13;;;;;;;136.85;22.55;;;;;;;0.31;100.00;103332.88;4995367;28;20038;-78
2022/01/14 06:35:39;;;;;;;161.90;23.40;;;;;;;0.27;100.00;103316.69;4980169;28;20030;-79
2022/01/14 06:38:05;;;;;;;155.20;23.73;;;;;;;0.33;100.00;103311.31;5009952;28;20084;-79
2022/01/14 06:40:31;;;;;;;133.85;22.50;;;;;;;0.36;100.00;103312.22;5012381;28;20023;-78
2022/01/14 06:42:56;;;;;;;196.20;24.27;;;;;;;0.35;100.00;103304.13;5003580;28;20081;-78
2022/01/14 06:45:23;;;;;;;161.82;22.55;;;;;;;0.28;100.00;103318.47;5012916;28;20160;-81
2022/01/14 06:47:49;;;;;;;266.75;27.45;;;;;;;0.31;100.00;103310.38;4984808;28;20038;-79
2022/01/14 06:50:15;;;;;;;219.07;25.42;;;;;;;0.35;100.00;103320.31;4984264;28;20035;-79
2022/01/14 06:52:41;;;;;;;271.10;26.70;;;;;;;0.16;100.00;103314.84;5014979;28;20692;-80
2022/01/14 06:55:07;;;;;;;148.73;25.63;;;;;;;0.21;100.00;103319.34;5000782;28;20034;-79
2022/01/14 06:57:33;;;;;;;208.30;26.25;;;;;;;0.37;100.00;103323.91;4996802;28;20081;-79
2022/01/14 06:59:59;;;;;;;215.98;26.08;;;;;;;0.12;100.00;103298.66;5014800;28;20026;-78
2022/01/14 07:02:24;;;;;;;266.92;27.10;;;;;;;0.27;100.00;103319.38;4992426;28;20117;-80
2022/01/14 07:04:50;;;;;;;184.32;25.13;;;;;;;0.24;100.00;103325.63;5001591;28;20014;-79
2022/01/14 07:07:15;;;;;;;232.50;26.67;;;;;;;0.24;100.00;103319.34;4981226;28;20086;-79
2022/01/14 07:09:56;;;;;;;289.75;29.42;;;;;;;0.11;100.00;103292.34;4990380;28;20039;-79
2022/01/14 07:12:33;;;;;;;194.05;26.15;;;;;;;0.26;100.00;103310.38;5022295;28;20034;-81
2022/01/14 07:15:00;;;;;;;162.05;27.20;;;;;;;0.39;100.00;103326.59;4974066;28;20097;-80
2022/01/14 07:17:26;;;;;;;266.23;29.65;;;;;;;0.36;100.00;103324.78;4982716;28;20028;-79
2022/01/14 07:19:54;;;;;;;199.30;26.95;;;;;;;0.31;100.00;103311.31;4984911;28;20035;-79
2022/01/14 07:22:21;;;;;;;237.48;30.38;;;;;;;0.44;100.00;103317.63;4983721;28;20040;-79
2022/01/14 07:24:47;;;;;;;199.55;30.77;;;;;;;0.45;100.00;103323.94;4983332;28;20125;-81
2022/01/14 07:27:14;;;;;;;249.55;28.77;;;;;;;0.39;100.00;103311.31;5021331;28;20088;-77
2022/01/14 07:29:40;;;;;;;186.02;30.10;;;;;;;0.45;100.00;103321.22;5020457;28;20054;-80
2022/01/14 07:32:06;;;;;;;237.27;30.45;;;;;;;0.43;100.00;103323.91;5014149;28;20049;-78
2022/01/14 07:34:32;;;;;;;228.73;28.55;;;;;;;0.49;100.00;103333.81;5021561;28;20041;-78
2022/01/14 07:36:57;;;;;;;163.95;27.20;;;;;;;0.47;100.00;103322.13;5017179;28;20061;-80
2022/01/14 07:39:23;;;;;;;220.02;29.52;;;;;;;0.43;100.00;103318.53;5001941;28;20133;-78
2022/01/14 07:41:50;;;;;;;210.88;27.23;;;;;;;0.38;100.00;103333.78;5016770;28;20030;-77
2022/01/14 07:44:15;;;;;;;260.63;26.98;;;;;;;0.41;100.00;103328.41;5015877;28;20474;-78
2022/01/14 07:46:41;;;;;;;254.30;28.88;;;;;;;0.44;100.00;103319.41;4990202;28;20045;-78
2022/01/14 07:49:07;;;;;;;248.65;32.20;;;;;;;0.44;100.00;103304.13;4997071;28;20026;-78
2022/01/14 07:51:33;;;;;;;284.17;32.67;;;;;;;0.47;100.00;103301.47;5000050;28;20053;-78
2022/01/14 07:54:04;;;;;;;300.42;29.90;;;;;;;0.69;100.00;103320.41;4991358;28;20129;-76
2022/01/14 07:56:30;;;;;;;315.45;36.30;;;;;;;0.59;100.00;103329.34;4994164;28;20359;-77
2022/01/14 07:58:56;;;;;;;291.13;31.42;;;;;;;0.57;100.00;103325.75;4973810;28;20027;-77
2022/01/14 08:01:21;;;;;;;271.13;31.88;;;;;;;0.51;100.00;103326.66;4977583;28;20060;-77
2022/01/14 08:03:46;;;;;;;295.55;32.13;;;;;;;0.55;100.00;103337.41;5004399;28;20046;-77
2022/01/14 08:06:15;;;;;;;291.80;30.80;;;;;;;0.58;100.00;103347.31;5008511;28;20088;-77
2022/01/14 08:08:40;;;;;;;322.85;33.97;;;;;;;0.58;100.00;103335.66;5009168;28;20046;-77
2022/01/14 08:11:06;;;;;;;221.85;31.52;;;;;;;0.62;100.00;103327.56;4977599;28;20384;-77
2022/01/14 08:13:32;;;;;;;233.73;32.40;;;;;;;0.57;100.00;103312.28;4987863;28;20461;-77
2022/01/14 08:15:59;;;;;;;276.70;35.53;;;;;;;0.71;100.00;103327.59;4995433;28;20125;-78
2022/01/14 08:18:24;;;;;;;184.23;28.05;;;;;;;0.82;100.00;103316.84;4996703;28;20042;-78
2022/01/14 08:20:50;;;;;;;311.13;33.95;;;;;;;0.73;100.00;103306.91;4995236;28;20046;-78
2022/01/14 08:23:16;;;;;;;281.63;32.10;;;;;;;0.70;100.00;103297.91;4995022;28;20473;-78
2022/01/14 08:25:41;;;;;;;253.90;33.85;;;;;;;0.67;100.00;103311.41;4981074;28;20046;-78
2022/01/14 08:28:07;;;;;;;332.15;32.53;;;;;;;0.67;100.00;103317.72;4998518;28;20038;-78
2022/01/14 08:30:32;;;;;;;353.33;37.10;;;;;;;0.69;100.00;103318.59;5008241;28;20042;-78
2022/01/14 08:32:58;;;;;;;258.45;31.63;;;;;;;0.74;100.00;103318.63;4995127;28;20034;-78
2022/01/14 08:35:23;;;;;;;277.88;33.45;;;;;;;0.79;100.00;103332.06;4991591;28;20719;-78
2022/01/14 08:37:49;;;;;;;236.23;32.92;;;;;;;0.84;100.00;103312.34;4994258;28;20034;-78
2022/01/14 08:40:14;;;;;;;317.00;36.20;;;;;;;0.91;100.00;103319.53;4995058;28;20022;-78
2022/01/14 08:42:40;;;;;;;283.40;34.67;;;;;;;0.93;100.00;103324.03;4994919;28;20121;-77
2022/01/14 08:45:06;;;;;;;254.18;33.97;;;;;;;0.91;100.00;103313.22;4991942;28;20042;-78
2022/01/14 08:47:31;;;;;;;255.55;36.38;;;;;;;0.89;100.00;103315.03;4976460;28;20129;-78
2022/01/14 08:49:57;;;;;;;233.23;35.70;;;;;;;0.96;100.00;103324.91;4997059;28;20744;-78
2022/01/14 08:52:23;;;;;;;219.02;32.85;;;;;;;0.98;100.00;103297.97;5012517;28;20736;-78
2022/01/14 08:54:48;;;;;;;237.13;34.47;;;;;;;0.98;100.00;103296.16;4991647;28;20089;-79
2022/01/14 08:57:14;;;;;;;305.75;36.70;;;;;;;0.97;100.00;103309.63;4992428;28;20035;-78
2022/01/14 08:59:40;;;;;;;291.92;35.72;;;;;;;1.14;100.00;103328.53;4980406;28;20466;-78
2022/01/14 09:02:06;;;;;;;220.40;32.60;;;;;;;1.07;100.00;103317.75;4993607;28;20054;-78
2022/01/14 09:04:32;;;;;;;318.08;36.40;;;;;;;1.21;100.00;103339.31;4999859;28;20410;-79
2022/01/14 09:06:57;;;;;;;300.55;36.58;;;;;;;1.24;100.00;103333.94;4981751;28;20082;-78
2022/01/14 09:09:23;;;;;;;286.10;38.28;;;;;;;1.25;100.00;103329.44;4976990;28;20039;-78
2022/01/14 09:11:49;;;;;;;304.40;39.22;;;;;;;1.32;100.00;103331.22;4993764;28;20081;-78
2022/01/14 09:14:14;;;;;;;261.00;33.80;;;;;;;1.22;100.00;103315.94;5010221;28;20030;-79
2022/01/14 09:16:39;;;;;;;195.60;33.53;;;;;;;1.33;100.00;103305.13;4993844;28;20035;-79
2022/01/14 09:19:05;;;;;;;296.33;36.45;;;;;;;1.17;100.00;103299.75;4997067;28;20710;-80
2022/01/14 09:21:30;;;;;;;350.35;38.15;;;;;;;1.32;100.00;103327.66;4997073;28;20113;-80
2022/01/14 09:24:05;;;;;;;273.30;37.00;;;;;;;1.38;100.00;103311.47;4998108;28;20066;-79
2022/01/14 09:26:35;;;;;;;324.67;36.53;;;;;;;1.42;100.00;103315.94;4980775;28;20026;-79
2022/01/14 09:29:03;;;;;;;363.60;39.30;;;;;;;1.40;100.00;103339.34;4996501;28;20109;-79
2022/01/14 09:31:28;;;;;;;265.13;35.53;;;;;;;1.41;100.00;103328.53;4998560;28;20041;-79
2022/01/14 09:33:54;;;;;;;364.20;41.25;;;;;;;1.48;100.00;103334.84;4998778;28;20042;-79
2022/01/14 09:36:20;;;;;;;386.90;42.33;;;;;;;1.46;100.00;103329.44;5002264;28;20334;-79
2022/01/14 09:38:47;;;;;;;299.02;40.22;;;;;;;1.46;100.00;103325.84;4999740;28;20498;-79
2022/01/14 09:41:14;;;;;;;301.25;39.75;;;;;;;1.53;100.00;103342.94;5010887;28;20429;-79
2022/01/14 09:43:40;;;;;;;345.40;43.95;;;;;;;1.65;100.00;103354.59;5016169;28;20063;-79
2022/01/14 09:46:08;;;;;;;320.80;43.88;;;;;;;1.58;100.00;103350.09;5003991;28;20041;-79
2022/01/14 09:48:34;;;;;;;279.45;39.67;;;;;;;1.54;100.00;103353.72;5000443;28;20053;-79
2022/01/14 09:51:01;;;;;;;360.92;41.53;;;;;;;1.61;100.00;103352.81;4994282;28;20034;-79
2022/01/14 09:53:28;;;;;;;260.10;37.85;;;;;;;1.57;100.00;103361.81;5007028;28;20030;-79
2022/01/14 09:55:53;;;;;;;330.73;41.50;;;;;;;1.52;100.00;103351.91;5011072;28;20049;-79
2022/01/14 09:58:23;;;;;;;243.30;37.97;;;;;;;1.50;100.00;103354.63;5003558;28;20030;-79
2022/01/14 10:00:48;;;;;;;206.95;37.85;;;;;;;1.57;100.00;103356.41;4990045;28;20038;-79
2022/01/14 10:03:23;;;;;;;285.20;42.55;;;;;;;1.53;100.00;103357.31;5034682;28;20023;-79
2022/01/14 10:05:52;;;;;;;322.98;39.60;;;;;;;1.56;100.00;103360.03;4982829;28;20034;-79
2022/01/14 10:08:23;;;;;;;199.45;36.92;;;;;;;1.55;100.00;103355.50;5013056;28;20049;-80
2022/01/14 10:10:50;;;;;;;351.77;41.33;;;;;;;1.67;100.00;103367.19;5033156;28;20034;-79
2022/01/14 10:13:22;;;;;;;217.73;36.72;;;;;;;1.62;100.00;103361.81;5018430;28;20398;-79
2022/01/14 10:15:51;;;;;;;278.25;38.78;;;;;;;1.70;100.00;103362.69;5010516;28;20060;-78
2022/01/14 10:18:19;;;;;;;256.08;42.53;;;;;;;1.69;100.00;103363.63;4997590;28;20537;-79
2022/01/14 10:20:45;;;;;;;347.35;40.22;;;;;;;1.69;100.00;103355.50;5017524;28;20042;-79
2022/01/14 10:23:12;;;;;;;248.98;37.00;;;;;;;1.61;100.00;103355.50;4999836;28;20367;-79
2022/01/14 10:25:39;;;;;;;283.55;41.70;;;;;;;1.75;100.00;103366.28;5020512;28;20041;-79
2022/01/14 10:28:16;;;;;;;312.38;41.72;;;;;;;1.79;100.00;103364.50;4984004;28;20038;-78
2022/01/14 10:30:44;;;;;;;303.45;42.10;;;;;;;1.74;100.00;103359.09;5013265;28;20064;-77
2022/01/14 10:33:11;;;;;;;219.88;38.63;;;;;;;1.81;100.00;103350.06;5012312;28;20046;-77
2022/01/14 10:35:42;;;;;;;209.60;37.58;;;;;;;1.93;100.00;103350.94;5002414;28;20065;-78
2022/01/14 10:38:14;;;;;;;246.35;40.58;;;;;;;1.94;100.00;103350.06;4996468;28;20035;-77
2022/01/14 10:40:48;;;;;;;274.20;43.45;;;;;;;1.94;100.00;103345.53;4987950;28;20036;-77
2022/01/14 10:43:16;;;;;;;255.80;43.65;;;;;;;1.98;100.00;103347.34;4994937;28;20034;-78
2022/01/14 10:45:43;;;;;;;201.65;40.00;;;;;;;2.01;100.00;103350.00;5011409;28;20034;-78
2022/01/14 10:48:14;;;;;;;292.13;43.63;;;;;;;2.10;100.00;103345.50;5004356;28;20157;-77
2022/01/14 10:50:58;;;;;;;222.75;39.63;;;;;;;2.15;100.00;103336.47;4996574;28;20084;-77
2022/01/14 10:53:31;;;;;;;267.38;42.40;;;;;;;2.11;100.00;103328.38;4978786;28;20070;-78
2022/01/14 10:56:02;;;;;;;216.48;42.90;;;;;;;2.16;100.00;103331.97;4996477;28;20677;-78
2022/01/14 10:58:34;;;;;;;271.38;45.00;;;;;;;2.20;100.00;103337.34;4976358;28;20039;-78
2022/01/14 11:01:07;;;;;;;212.23;45.13;;;;;;;2.20;100.00;103322.94;5001301;28;20536;-78
2022/01/14 11:03:44;;;;;;;262.38;45.20;;;;;;;2.22;100.00;103321.13;4992575;28;20466;-77
2022/01/14 11:06:29;;;;;;;232.35;45.53;;;;;;;2.32;100.00;103325.59;4996759;28;20504;-77
2022/01/14 11:09:13;;;;;;;285.40;46.58;;;;;;;2.30;100.00;103324.69;5001027;28;20074;-78
2022/01/14 11:11:44;;;;;;;265.98;43.85;;;;;;;2.38;100.00;103319.28;5011906;28;20383;-79
2022/01/14 11:14:10;;;;;;;195.15;42.08;;;;;;;2.43;100.00;103313.81;5014110;28;20366;-77
2022/01/14 11:16:36;;;;;;;276.15;46.90;;;;;;;2.42;100.00;103323.75;5013281;28;20045;-78
2022/01/14 11:19:03;;;;;;;185.13;40.95;;;;;;;2.35;100.00;103320.16;4992484;28;20058;-77
2022/01/14 11:24:37;;;;;;;228.13;44.03;;;;;;;2.44;100.00;103315.63;4995137;28;20062;-78
2022/01/14 11:27:09;;;;;;;184.60;39.50;;;;;;;2.41;100.00;103315.63;5006713;28;20493;-78
2022/01/14 11:29:42;;;;;;;180.75;43.47;;;;;;;2.38;100.00;103303.94;5003082;28;20030;-77
2022/01/14 11:32:09;;;;;;;197.77;43.60;;;;;;;2.42;100.00;103304.81;4995521;28;20034;-78